sensor_id;sensor_type;location;lat;lon;timestamp;pressure;altitude;pressure_sealevel;temperature;humidity
7264;BME280;3673;52.480;13.348;2023-07-20T00:00:06;100622.56;;;21.14;63.41
7264;BME280;3673;52.480;13.348;2023-07-20T00:02:34;100624.75;;;21.04;64.20
7264;BME280;3673;52.480;13.348;2023-07-20T00:05:01;100620.63;;;21.36;63.34
7264;BME280;3673;52.480;13.348;2023-07-20T00:07:27;100629.78;;;20.91;64.53
7264;BME280;3673;52.480;13.348;2023-07-20T00:09:55;100630.13;;;21.23;63.92
7264;BME280;3673;52.480;13.348;2023-07-20T00:12:22;100626.75;;;21.38;63.63
7264;BME280;3673;52.480;13.348;2023-07-20T00:14:49;100619.09;;;21.49;63.09
7264;BME280;3673;52.480;13.348;2023-07-20T00:17:19;100625.84;;;21.75;61.96
7264;BME280;3673;52.480;13.348;2023-07-20T00:19:46;100626.25;;;22.03;60.88
7264;BME280;3673;52.480;13.348;2023-07-20T00:22:13;100636.81;;;21.31;63.11
7264;BME280;3673;52.480;13.348;2023-07-20T00:24:39;100629.84;;;20.90;64.42
7264;BME280;3673;52.480;13.348;2023-07-20T00:27:08;100628.78;;;20.94;64.31
7264;BME280;3673;52.480;13.348;2023-07-20T00:29:34;100621.94;;;21.07;64.18
7264;BME280;3673;52.480;13.348;2023-07-20T00:32:02;100623.44;;;21.14;63.71
7264;BME280;3673;52.480;13.348;2023-07-20T00:34:30;100628.25;;;21.25;63.35
7264;BME280;3673;52.480;13.348;2023-07-20T00:36:57;100635.09;;;21.30;63.22
7264;BME280;3673;52.480;13.348;2023-07-20T00:39:23;100634.50;;;21.42;62.93
7264;BME280;3673;52.480;13.348;2023-07-20T00:41:50;100635.09;;;21.30;63.10
7264;BME280;3673;52.480;13.348;2023-07-20T00:44:18;100629.91;;;21.27;63.06
7264;BME280;3673;52.480;13.348;2023-07-20T00:46:45;100638.13;;;21.02;63.80
7264;BME280;3673;52.480;13.348;2023-07-20T00:49:12;100640.13;;;20.97;63.85
7264;BME280;3673;52.480;13.348;2023-07-20T00:51:39;100642.81;;;20.77;64.52
7264;BME280;3673;52.480;13.348;2023-07-20T00:54:05;100634.63;;;20.82;64.43
7264;BME280;3673;52.480;13.348;2023-07-20T00:56:32;100635.69;;;20.98;64.13
7264;BME280;3673;52.480;13.348;2023-07-20T00:58:59;100625.03;;;20.98;64.04
7264;BME280;3673;52.480;13.348;2023-07-20T01:01:27;100624.81;;;21.02;63.97
7264;BME280;3673;52.480;13.348;2023-07-20T01:03:54;100637.34;;;21.00;63.71
7264;BME280;3673;52.480;13.348;2023-07-20T01:06:29;100627.69;;;21.18;63.24
7264;BME280;3673;52.480;13.348;2023-07-20T01:09:11;100634.59;;;21.02;63.73
7264;BME280;3673;52.480;13.348;2023-07-20T01:11:53;100637.09;;;21.05;63.57
7264;BME280;3673;52.480;13.348;2023-07-20T01:14:24;100638.03;;;21.24;63.33
7264;BME280;3673;52.480;13.348;2023-07-20T01:16:52;100648.88;;;20.81;64.00
7264;BME280;3673;52.480;13.348;2023-07-20T01:19:19;100637.50;;;20.77;64.30
7264;BME280;3673;52.480;13.348;2023-07-20T01:21:51;100635.72;;;20.78;64.45
7264;BME280;3673;52.480;13.348;2023-07-20T01:24:42;100635.84;;;20.75;64.71
7264;BME280;3673;52.480;13.348;2023-07-20T01:27:32;100639.50;;;20.52;65.19
7264;BME280;3673;52.480;13.348;2023-07-20T01:30:22;100639.25;;;20.58;65.24
7264;BME280;3673;52.480;13.348;2023-07-20T01:32:55;100636.03;;;20.30;66.68
7264;BME280;3673;52.480;13.348;2023-07-20T01:35:26;100636.97;;;20.29;66.39
7264;BME280;3673;52.480;13.348;2023-07-20T01:37:54;100628.34;;;19.80;67.79
7264;BME280;3673;52.480;13.348;2023-07-20T01:40:22;100637.38;;;20.18;67.22
7264;BME280;3673;52.480;13.348;2023-07-20T01:42:51;100631.66;;;20.29;66.67
7264;BME280;3673;52.480;13.348;2023-07-20T01:45:18;100639.41;;;19.91;67.16
7264;BME280;3673;52.480;13.348;2023-07-20T01:47:45;100634.50;;;20.02;67.17
7264;BME280;3673;52.480;13.348;2023-07-20T01:50:13;100634.06;;;20.13;66.79
7264;BME280;3673;52.480;13.348;2023-07-20T01:52:39;100637.50;;;20.57;65.38
7264;BME280;3673;52.480;13.348;2023-07-20T01:55:08;100638.25;;;20.61;64.35
7264;BME280;3673;52.480;13.348;2023-07-20T01:57:34;100631.97;;;20.21;66.02
7264;BME280;3673;52.480;13.348;2023-07-20T02:00:02;100638.94;;;20.02;66.58
7264;BME280;3673;52.480;13.348;2023-07-20T02:02:29;100632.75;;;20.23;66.36
7264;BME280;3673;52.480;13.348;2023-07-20T02:04:56;100631.97;;;20.21;66.14
7264;BME280;3673;52.480;13.348;2023-07-20T02:07:24;100636.66;;;20.15;66.30
7264;BME280;3673;52.480;13.348;2023-07-20T02:09:50;100640.56;;;20.06;66.68
7264;BME280;3673;52.480;13.348;2023-07-20T02:12:17;100639.97;;;20.20;66.54
7264;BME280;3673;52.480;13.348;2023-07-20T02:14:44;100641.41;;;20.07;66.21
7264;BME280;3673;52.480;13.348;2023-07-20T02:17:11;100641.97;;;20.36;65.08
7264;BME280;3673;52.480;13.348;2023-07-20T02:19:37;100640.56;;;20.06;65.46
7264;BME280;3673;52.480;13.348;2023-07-20T02:22:05;100632.72;;;20.03;66.08
7264;BME280;3673;52.480;13.348;2023-07-20T02:24:34;100629.84;;;19.87;66.43
7264;BME280;3673;52.480;13.348;2023-07-20T02:27:00;100627.25;;;19.64;66.79
7264;BME280;3673;52.480;13.348;2023-07-20T02:29:27;100633.59;;;20.03;65.78
7264;BME280;3673;52.480;13.348;2023-07-20T02:31:54;100625.03;;;20.17;65.08
7264;BME280;3673;52.480;13.348;2023-07-20T02:34:21;100631.47;;;20.33;64.79
7264;BME280;3673;52.480;13.348;2023-07-20T02:36:47;100627.19;;;20.29;64.65
7264;BME280;3673;52.480;13.348;2023-07-20T02:39:14;100629.06;;;20.05;64.99
7264;BME280;3673;52.480;13.348;2023-07-20T02:41:42;100633.00;;;20.17;64.57
7264;BME280;3673;52.480;13.348;2023-07-20T02:44:09;100640.03;;;19.98;65.22
7264;BME280;3673;52.480;13.348;2023-07-20T02:46:36;100642.22;;;20.09;65.13
7264;BME280;3673;52.480;13.348;2023-07-20T02:49:03;100640.63;;;20.04;65.02
7264;BME280;3673;52.480;13.348;2023-07-20T02:51:30;100638.28;;;19.75;65.92
7264;BME280;3673;52.480;13.348;2023-07-20T02:53:56;100641.69;;;19.79;66.34
7264;BME280;3673;52.480;13.348;2023-07-20T02:56:23;100656.44;;;19.86;66.30
7264;BME280;3673;52.480;13.348;2023-07-20T02:58:51;100658.88;;;19.69;66.97
7264;BME280;3673;52.480;13.348;2023-07-20T03:01:18;100661.13;;;19.79;66.25
7264;BME280;3673;52.480;13.348;2023-07-20T03:03:45;100658.84;;;19.70;66.83
7264;BME280;3673;52.480;13.348;2023-07-20T03:06:13;100659.41;;;20.00;65.66
7264;BME280;3673;52.480;13.348;2023-07-20T03:08:40;100660.81;;;20.09;65.44
7264;BME280;3673;52.480;13.348;2023-07-20T03:11:11;100670.50;;;20.10;65.18
7264;BME280;3673;52.480;13.348;2023-07-20T03:13:37;100673.84;;;19.93;65.09
7264;BME280;3673;52.480;13.348;2023-07-20T03:16:05;100673.41;;;20.03;65.15
7264;BME280;3673;52.480;13.348;2023-07-20T03:18:36;100667.59;;;20.16;64.50
7264;BME280;3673;52.480;13.348;2023-07-20T03:21:03;100657.91;;;20.36;64.11
7264;BME280;3673;52.480;13.348;2023-07-20T03:23:30;100669.59;;;20.11;64.13
7264;BME280;3673;52.480;13.348;2023-07-20T03:25:57;100662.19;;;19.97;64.64
7264;BME280;3673;52.480;13.348;2023-07-20T03:28:24;100660.69;;;19.90;65.00
7264;BME280;3673;52.480;13.348;2023-07-20T03:30:53;100661.69;;;19.87;65.57
7264;BME280;3673;52.480;13.348;2023-07-20T03:33:22;100653.00;;;19.84;65.89
7264;BME280;3673;52.480;13.348;2023-07-20T03:35:49;100663.97;;;19.96;65.25
7264;BME280;3673;52.480;13.348;2023-07-20T03:38:15;100673.91;;;20.13;64.50
7264;BME280;3673;52.480;13.348;2023-07-20T03:40:49;100671.44;;;20.30;64.54
7264;BME280;3673;52.480;13.348;2023-07-20T03:43:16;100671.56;;;19.84;66.02
7264;BME280;3673;52.480;13.348;2023-07-20T03:45:43;100673.28;;;19.63;66.95
7264;BME280;3673;52.480;13.348;2023-07-20T03:48:11;100673.66;;;19.76;66.46
7264;BME280;3673;52.480;13.348;2023-07-20T03:50:39;100681.53;;;19.56;67.15
7264;BME280;3673;52.480;13.348;2023-07-20T03:53:05;100676.94;;;19.61;67.54
7264;BME280;3673;52.480;13.348;2023-07-20T03:55:32;100680.34;;;19.64;66.73
7264;BME280;3673;52.480;13.348;2023-07-20T03:57:59;100673.22;;;19.86;65.96
7264;BME280;3673;52.480;13.348;2023-07-20T04:00:26;100679.22;;;19.70;66.98
7264;BME280;3673;52.480;13.348;2023-07-20T04:02:52;100686.47;;;19.88;66.19
7264;BME280;3673;52.480;13.348;2023-07-20T04:05:20;100677.63;;;19.87;66.33
7264;BME280;3673;52.480;13.348;2023-07-20T04:07:48;100677.97;;;19.78;66.58
7264;BME280;3673;52.480;13.348;2023-07-20T04:10:14;100688.53;;;19.80;66.36
7264;BME280;3673;52.480;13.348;2023-07-20T04:12:41;100687.81;;;19.98;66.26
7264;BME280;3673;52.480;13.348;2023-07-20T04:15:09;100686.50;;;19.86;66.28
7264;BME280;3673;52.480;13.348;2023-07-20T04:17:37;100685.09;;;19.99;65.73
7264;BME280;3673;52.480;13.348;2023-07-20T04:20:05;100678.16;;;20.17;65.34
7264;BME280;3673;52.480;13.348;2023-07-20T04:22:32;100696.38;;;20.28;64.50
7264;BME280;3673;52.480;13.348;2023-07-20T04:25:00;100687.00;;;20.39;64.10
7264;BME280;3673;52.480;13.348;2023-07-20T04:27:27;100689.84;;;20.13;65.01
7264;BME280;3673;52.480;13.348;2023-07-20T04:29:53;100695.44;;;20.49;64.06
7264;BME280;3673;52.480;13.348;2023-07-20T04:32:20;100699.19;;;20.85;62.66
7264;BME280;3673;52.480;13.348;2023-07-20T04:34:47;100695.69;;;20.85;61.86
7264;BME280;3673;52.480;13.348;2023-07-20T04:37:14;100698.03;;;20.30;63.10
7264;BME280;3673;52.480;13.348;2023-07-20T04:39:40;100701.44;;;20.54;62.80
7264;BME280;3673;52.480;13.348;2023-07-20T04:42:08;100707.47;;;20.37;63.07
7264;BME280;3673;52.480;13.348;2023-07-20T04:44:35;100704.56;;;20.43;62.68
7264;BME280;3673;52.480;13.348;2023-07-20T04:47:02;100706.91;;;20.29;63.40
7264;BME280;3673;52.480;13.348;2023-07-20T04:49:29;100709.06;;;20.20;63.44
7264;BME280;3673;52.480;13.348;2023-07-20T04:51:56;100706.41;;;20.41;62.83
7264;BME280;3673;52.480;13.348;2023-07-20T04:54:23;100707.91;;;20.27;62.61
7264;BME280;3673;52.480;13.348;2023-07-20T04:56:50;100703.66;;;20.65;62.33
7264;BME280;3673;52.480;13.348;2023-07-20T04:59:18;100709.56;;;20.91;60.96
7264;BME280;3673;52.480;13.348;2023-07-20T05:01:44;100702.25;;;20.76;60.50
7264;BME280;3673;52.480;13.348;2023-07-20T05:04:11;100706.72;;;20.34;61.70
7264;BME280;3673;52.480;13.348;2023-07-20T05:06:38;100708.66;;;20.30;61.41
7264;BME280;3673;52.480;13.348;2023-07-20T05:09:05;100705.78;;;20.13;61.86
7264;BME280;3673;52.480;13.348;2023-07-20T05:11:32;100708.81;;;20.47;60.97
7264;BME280;3673;52.480;13.348;2023-07-20T05:13:59;100712.91;;;20.34;61.42
7264;BME280;3673;52.480;13.348;2023-07-20T05:16:27;100707.84;;;20.70;60.52
7264;BME280;3673;52.480;13.348;2023-07-20T05:18:55;100710.22;;;20.56;61.11
7264;BME280;3673;52.480;13.348;2023-07-20T05:21:22;100716.06;;;20.44;60.85
7264;BME280;3673;52.480;13.348;2023-07-20T05:23:49;100710.88;;;20.41;60.91
7264;BME280;3673;52.480;13.348;2023-07-20T05:26:16;100711.66;;;20.43;61.40
7264;BME280;3673;52.480;13.348;2023-07-20T05:28:43;100716.91;;;20.44;61.22
7264;BME280;3673;52.480;13.348;2023-07-20T05:31:09;100725.88;;;20.42;60.90
7264;BME280;3673;52.480;13.348;2023-07-20T05:33:37;100720.22;;;20.91;60.01
7264;BME280;3673;52.480;13.348;2023-07-20T05:36:04;100716.69;;;21.11;59.05
7264;BME280;3673;52.480;13.348;2023-07-20T05:38:31;100720.72;;;21.20;59.17
7264;BME280;3673;52.480;13.348;2023-07-20T05:41:00;100714.88;;;21.50;58.46
7264;BME280;3673;52.480;13.348;2023-07-20T05:43:29;100714.03;;;21.87;56.88
7264;BME280;3673;52.480;13.348;2023-07-20T05:45:56;100719.78;;;21.97;55.92
7264;BME280;3673;52.480;13.348;2023-07-20T05:48:24;100732.03;;;22.01;55.94
7264;BME280;3673;52.480;13.348;2023-07-20T05:50:52;100734.13;;;21.94;55.81
7264;BME280;3673;52.480;13.348;2023-07-20T05:53:19;100722.81;;;21.71;56.99
7264;BME280;3673;52.480;13.348;2023-07-20T05:55:52;100733.47;;;21.32;58.28
7264;BME280;3673;52.480;13.348;2023-07-20T05:58:19;100733.97;;;21.01;59.19
7264;BME280;3673;52.480;13.348;2023-07-20T06:00:48;100741.00;;;21.02;59.01
7264;BME280;3673;52.480;13.348;2023-07-20T06:03:15;100736.34;;;21.07;59.23
7264;BME280;3673;52.480;13.348;2023-07-20T06:05:42;100733.09;;;21.00;58.88
7264;BME280;3673;52.480;13.348;2023-07-20T06:08:11;100746.81;;;20.49;60.07
7264;BME280;3673;52.480;13.348;2023-07-20T06:10:37;100744.03;;;20.52;60.11
7264;BME280;3673;52.480;13.348;2023-07-20T06:13:04;100742.66;;;20.64;59.93
7264;BME280;3673;52.480;13.348;2023-07-20T06:15:33;100746.09;;;20.66;60.26
7264;BME280;3673;52.480;13.348;2023-07-20T06:18:01;100750.50;;;20.67;59.96
7264;BME280;3673;52.480;13.348;2023-07-20T06:20:29;100744.47;;;20.42;60.19
7264;BME280;3673;52.480;13.348;2023-07-20T06:22:56;100747.72;;;20.48;60.12
7264;BME280;3673;52.480;13.348;2023-07-20T06:25:24;100750.94;;;20.57;59.74
7264;BME280;3673;52.480;13.348;2023-07-20T06:27:51;100751.78;;;20.99;59.27
7264;BME280;3673;52.480;13.348;2023-07-20T06:30:19;100747.19;;;20.82;59.05
7264;BME280;3673;52.480;13.348;2023-07-20T06:32:46;100760.22;;;20.88;58.89
7264;BME280;3673;52.480;13.348;2023-07-20T06:35:13;100750.94;;;21.19;58.26
7264;BME280;3673;52.480;13.348;2023-07-20T06:37:41;100750.72;;;21.23;57.79
7264;BME280;3673;52.480;13.348;2023-07-20T06:40:09;100750.97;;;21.37;56.94
7264;BME280;3673;52.480;13.348;2023-07-20T06:42:37;100757.03;;;20.80;56.75
7264;BME280;3673;52.480;13.348;2023-07-20T06:45:05;100767.94;;;20.94;56.67
7264;BME280;3673;52.480;13.348;2023-07-20T06:47:32;100757.09;;;20.99;56.21
7264;BME280;3673;52.480;13.348;2023-07-20T06:49:58;100759.69;;;21.00;56.00
7264;BME280;3673;52.480;13.348;2023-07-20T06:52:25;100752.09;;;20.51;56.36
7264;BME280;3673;52.480;13.348;2023-07-20T06:54:52;100754.25;;;21.03;55.57
7264;BME280;3673;52.480;13.348;2023-07-20T06:57:19;100764.16;;;21.59;54.25
7264;BME280;3673;52.480;13.348;2023-07-20T06:59:47;100753.22;;;22.04;52.81
7264;BME280;3673;52.480;13.348;2023-07-20T07:02:14;100755.63;;;22.27;51.67
7264;BME280;3673;52.480;13.348;2023-07-20T07:04:41;100758.06;;;22.68;50.52
7264;BME280;3673;52.480;13.348;2023-07-20T07:07:08;100749.78;;;21.82;52.31
7264;BME280;3673;52.480;13.348;2023-07-20T07:09:34;100743.56;;;22.37;51.78
7264;BME280;3673;52.480;13.348;2023-07-20T07:12:01;100746.22;;;22.01;51.88
7264;BME280;3673;52.480;13.348;2023-07-20T07:14:28;100762.47;;;21.58;53.97
7264;BME280;3673;52.480;13.348;2023-07-20T07:16:56;100761.78;;;21.34;54.00
7264;BME280;3673;52.480;13.348;2023-07-20T07:19:23;100763.72;;;21.49;53.95
7264;BME280;3673;52.480;13.348;2023-07-20T07:21:50;100764.59;;;22.43;52.16
7264;BME280;3673;52.480;13.348;2023-07-20T07:24:16;100762.44;;;21.97;53.07
7264;BME280;3673;52.480;13.348;2023-07-20T07:26:43;100758.91;;;22.32;51.91
7264;BME280;3673;52.480;13.348;2023-07-20T07:29:10;100763.69;;;23.13;49.70
7264;BME280;3673;52.480;13.348;2023-07-20T07:31:37;100762.28;;;23.40;48.09
7264;BME280;3673;52.480;13.348;2023-07-20T07:34:05;100765.44;;;22.08;50.39
7264;BME280;3673;52.480;13.348;2023-07-20T07:36:32;100761.88;;;21.70;51.57
7264;BME280;3673;52.480;13.348;2023-07-20T07:39:00;100761.38;;;21.62;51.49
7264;BME280;3673;52.480;13.348;2023-07-20T07:41:27;100755.41;;;21.76;51.14
7264;BME280;3673;52.480;13.348;2023-07-20T07:43:53;100760.44;;;22.38;49.87
7264;BME280;3673;52.480;13.348;2023-07-20T07:46:20;100752.72;;;23.02;48.20
7264;BME280;3673;52.480;13.348;2023-07-20T07:48:47;100764.00;;;23.90;44.98
7264;BME280;3673;52.480;13.348;2023-07-20T07:51:16;100760.88;;;22.82;47.15
7264;BME280;3673;52.480;13.348;2023-07-20T07:53:43;100769.56;;;22.51;47.89
7264;BME280;3673;52.480;13.348;2023-07-20T07:56:09;100768.69;;;22.50;48.00
7264;BME280;3673;52.480;13.348;2023-07-20T07:58:36;100768.13;;;22.25;48.35
7264;BME280;3673;52.480;13.348;2023-07-20T08:01:03;100772.94;;;22.54;48.09
7264;BME280;3673;52.480;13.348;2023-07-20T08:03:30;100766.78;;;22.17;49.21
7264;BME280;3673;52.480;13.348;2023-07-20T08:05:57;100766.94;;;22.68;48.47
7264;BME280;3673;52.480;13.348;2023-07-20T08:08:25;100771.66;;;22.44;48.76
7264;BME280;3673;52.480;13.348;2023-07-20T08:10:53;100767.31;;;22.42;47.84
7264;BME280;3673;52.480;13.348;2023-07-20T08:13:21;100776.94;;;22.08;48.35
7264;BME280;3673;52.480;13.348;2023-07-20T08:15:51;100769.91;;;22.43;47.87
7264;BME280;3673;52.480;13.348;2023-07-20T08:18:18;100788.75;;;22.93;46.17
7264;BME280;3673;52.480;13.348;2023-07-20T08:20:45;100780.97;;;23.06;45.33
7264;BME280;3673;52.480;13.348;2023-07-20T08:23:12;100797.84;;;23.24;44.06
7264;BME280;3673;52.480;13.348;2023-07-20T08:25:40;100799.63;;;22.72;45.18
7264;BME280;3673;52.480;13.348;2023-07-20T08:28:09;100804.97;;;22.72;45.65
7264;BME280;3673;52.480;13.348;2023-07-20T08:30:41;100796.69;;;22.59;46.12
7264;BME280;3673;52.480;13.348;2023-07-20T08:33:09;100788.19;;;22.70;45.97
7264;BME280;3673;52.480;13.348;2023-07-20T08:35:36;100801.53;;;22.87;45.60
7264;BME280;3673;52.480;13.348;2023-07-20T08:38:03;100800.38;;;23.44;44.56
7264;BME280;3673;52.480;13.348;2023-07-20T08:40:31;100793.38;;;23.24;45.34
7264;BME280;3673;52.480;13.348;2023-07-20T08:43:00;100791.75;;;23.22;45.17
7264;BME280;3673;52.480;13.348;2023-07-20T08:45:28;100788.81;;;23.09;45.59
7264;BME280;3673;52.480;13.348;2023-07-20T08:47:56;100795.53;;;22.65;46.54
7264;BME280;3673;52.480;13.348;2023-07-20T08:50:29;100799.84;;;22.31;46.42
7264;BME280;3673;52.480;13.348;2023-07-20T08:52:58;100798.47;;;22.41;46.07
7264;BME280;3673;52.480;13.348;2023-07-20T08:55:26;100797.53;;;22.95;45.64
7264;BME280;3673;52.480;13.348;2023-07-20T08:57:55;100804.88;;;23.59;44.19
7264;BME280;3673;52.480;13.348;2023-07-20T09:00:24;100797.50;;;24.13;42.70
7264;BME280;3673;52.480;13.348;2023-07-20T09:02:54;100791.69;;;24.67;41.45
7264;BME280;3673;52.480;13.348;2023-07-20T09:05:23;100801.16;;;24.10;41.72
7264;BME280;3673;52.480;13.348;2023-07-20T09:07:51;100797.13;;;24.03;42.23
7264;BME280;3673;52.480;13.348;2023-07-20T09:10:20;100803.56;;;23.83;42.19
7264;BME280;3673;52.480;13.348;2023-07-20T09:12:47;100797.09;;;23.87;42.40
7264;BME280;3673;52.480;13.348;2023-07-20T09:15:14;100796.69;;;23.62;43.07
7264;BME280;3673;52.480;13.348;2023-07-20T09:17:47;100788.78;;;24.40;41.87
7264;BME280;3673;52.480;13.348;2023-07-20T09:20:16;100795.44;;;24.33;41.71
7264;BME280;3673;52.480;13.348;2023-07-20T09:22:44;100791.81;;;23.70;42.54
7264;BME280;3673;52.480;13.348;2023-07-20T09:25:12;100792.41;;;23.75;42.08
7264;BME280;3673;52.480;13.348;2023-07-20T09:27:41;100791.84;;;23.53;42.39
7264;BME280;3673;52.480;13.348;2023-07-20T09:30:09;100790.69;;;24.23;41.28
7264;BME280;3673;52.480;13.348;2023-07-20T09:32:39;100792.53;;;24.68;40.78
7264;BME280;3673;52.480;13.348;2023-07-20T09:35:13;100794.53;;;24.64;39.98
7264;BME280;3673;52.480;13.348;2023-07-20T09:37:46;100789.72;;;24.39;40.80
7264;BME280;3673;52.480;13.348;2023-07-20T09:40:15;100791.00;;;24.64;40.83
7264;BME280;3673;52.480;13.348;2023-07-20T09:42:45;100803.38;;;24.96;39.83
7264;BME280;3673;52.480;13.348;2023-07-20T09:45:12;100791.31;;;24.28;40.20
7264;BME280;3673;52.480;13.348;2023-07-20T09:47:39;100798.41;;;23.96;40.44
7264;BME280;3673;52.480;13.348;2023-07-20T09:50:08;100793.03;;;23.65;41.30
7264;BME280;3673;52.480;13.348;2023-07-20T09:52:38;100801.59;;;23.37;42.21
7264;BME280;3673;52.480;13.348;2023-07-20T09:55:07;100812.53;;;23.15;42.86
7264;BME280;3673;52.480;13.348;2023-07-20T09:57:35;100815.34;;;23.12;43.12
7264;BME280;3673;52.480;13.348;2023-07-20T10:00:04;100813.22;;;23.19;43.10
7264;BME280;3673;52.480;13.348;2023-07-20T10:02:42;100810.88;;;22.95;43.88
7264;BME280;3673;52.480;13.348;2023-07-20T10:05:13;100820.72;;;22.22;45.70
7264;BME280;3673;52.480;13.348;2023-07-20T10:07:46;100819.81;;;22.77;45.07
7264;BME280;3673;52.480;13.348;2023-07-20T10:10:15;100816.59;;;23.22;44.48
7264;BME280;3673;52.480;13.348;2023-07-20T10:12:43;100814.81;;;23.23;44.32
7264;BME280;3673;52.480;13.348;2023-07-20T10:15:15;100816.44;;;23.25;44.30
7264;BME280;3673;52.480;13.348;2023-07-20T10:17:57;100816.69;;;23.55;43.67
7264;BME280;3673;52.480;13.348;2023-07-20T10:20:27;100810.63;;;24.17;42.60
7264;BME280;3673;52.480;13.348;2023-07-20T10:22:56;100813.44;;;25.06;40.93
7264;BME280;3673;52.480;13.348;2023-07-20T10:25:23;100806.97;;;24.49;41.80
7264;BME280;3673;52.480;13.348;2023-07-20T10:27:51;100810.94;;;24.58;41.73
7264;BME280;3673;52.480;13.348;2023-07-20T10:30:18;100816.91;;;23.33;44.31
7264;BME280;3673;52.480;13.348;2023-07-20T10:32:46;100812.34;;;23.35;44.44
7264;BME280;3673;52.480;13.348;2023-07-20T10:35:15;100811.09;;;22.74;45.99
7264;BME280;3673;52.480;13.348;2023-07-20T10:37:52;100807.03;;;22.84;45.92
7264;BME280;3673;52.480;13.348;2023-07-20T10:40:39;100812.22;;;22.87;45.98
7264;BME280;3673;52.480;13.348;2023-07-20T10:43:08;100810.63;;;22.47;46.51
7264;BME280;3673;52.480;13.348;2023-07-20T10:45:49;100817.47;;;22.52;46.82
7264;BME280;3673;52.480;13.348;2023-07-20T10:48:18;100806.94;;;22.68;46.79
7264;BME280;3673;52.480;13.348;2023-07-20T10:53:35;100814.25;;;22.63;47.41
7264;BME280;3673;52.480;13.348;2023-07-20T10:56:12;100811.44;;;23.53;45.92
7264;BME280;3673;52.480;13.348;2023-07-20T10:58:40;100827.34;;;22.86;46.50
7264;BME280;3673;52.480;13.348;2023-07-20T11:01:07;100822.78;;;22.52;47.74
7264;BME280;3673;52.480;13.348;2023-07-20T11:03:37;100818.38;;;22.34;48.57
7264;BME280;3673;52.480;13.348;2023-07-20T11:06:31;100823.41;;;22.76;47.42
7264;BME280;3673;52.480;13.348;2023-07-20T11:09:10;100827.44;;;22.85;47.46
7264;BME280;3673;52.480;13.348;2023-07-20T11:11:41;100825.75;;;22.46;47.99
7264;BME280;3673;52.480;13.348;2023-07-20T11:14:10;100833.63;;;22.12;48.41
7264;BME280;3673;52.480;13.348;2023-07-20T11:16:39;100830.25;;;22.08;48.49
7264;BME280;3673;52.480;13.348;2023-07-20T11:19:16;100835.28;;;22.33;48.93
7264;BME280;3673;52.480;13.348;2023-07-20T11:21:45;100835.50;;;22.10;48.75
7264;BME280;3673;52.480;13.348;2023-07-20T11:24:13;100844.59;;;22.06;48.85
7264;BME280;3673;52.480;13.348;2023-07-20T11:26:45;100828.69;;;22.59;47.94
7264;BME280;3673;52.480;13.348;2023-07-20T11:29:13;100838.03;;;21.94;49.70
7264;BME280;3673;52.480;13.348;2023-07-20T11:31:42;100830.13;;;22.85;47.81
7264;BME280;3673;52.480;13.348;2023-07-20T11:34:12;100825.63;;;23.20;47.09
7264;BME280;3673;52.480;13.348;2023-07-20T11:36:40;100825.34;;;23.43;46.19
7264;BME280;3673;52.480;13.348;2023-07-20T11:39:09;100828.84;;;23.61;44.99
7264;BME280;3673;52.480;13.348;2023-07-20T11:41:38;100830.31;;;25.23;41.10
7264;BME280;3673;52.480;13.348;2023-07-20T11:44:05;100813.47;;;26.21;39.53
7264;BME280;3673;52.480;13.348;2023-07-20T11:46:33;100819.69;;;27.67;36.37
7264;BME280;3673;52.480;13.348;2023-07-20T11:49:03;100817.25;;;28.49;34.72
7264;BME280;3673;52.480;13.348;2023-07-20T11:51:30;100817.47;;;28.82;33.98
7264;BME280;3673;52.480;13.348;2023-07-20T11:53:57;100812.81;;;29.19;33.22
7264;BME280;3673;52.480;13.348;2023-07-20T11:56:26;100811.38;;;27.95;34.59
7264;BME280;3673;52.480;13.348;2023-07-20T11:58:57;100814.13;;;27.05;35.51
7264;BME280;3673;52.480;13.348;2023-07-20T12:01:25;100811.47;;;25.68;37.97
7264;BME280;3673;52.480;13.348;2023-07-20T12:03:55;100805.31;;;26.08;37.81
7264;BME280;3673;52.480;13.348;2023-07-20T12:06:23;100803.19;;;26.28;38.16
7264;BME280;3673;52.480;13.348;2023-07-20T12:08:55;100815.59;;;25.88;38.67
7264;BME280;3673;52.480;13.348;2023-07-20T12:11:36;100811.22;;;25.43;39.30
7264;BME280;3673;52.480;13.348;2023-07-20T12:14:07;100812.56;;;25.06;39.91
7264;BME280;3673;52.480;13.348;2023-07-20T12:16:36;100803.59;;;24.62;41.11
7264;BME280;3673;52.480;13.348;2023-07-20T12:19:05;100808.16;;;24.59;41.37
7264;BME280;3673;52.480;13.348;2023-07-20T12:21:35;100816.22;;;24.28;42.02
7264;BME280;3673;52.480;13.348;2023-07-20T12:24:03;100810.53;;;23.86;42.55
7264;BME280;3673;52.480;13.348;2023-07-20T12:26:30;100814.50;;;23.46;43.30
7264;BME280;3673;52.480;13.348;2023-07-20T12:28:57;100814.47;;;23.29;43.31
7264;BME280;3673;52.480;13.348;2023-07-20T12:31:26;100813.16;;;23.20;43.02
7264;BME280;3673;52.480;13.348;2023-07-20T12:33:56;100817.13;;;23.63;42.03
7264;BME280;3673;52.480;13.348;2023-07-20T12:36:23;100810.84;;;23.64;39.51
7264;BME280;3673;52.480;13.348;2023-07-20T12:38:50;100816.84;;;24.18;39.41
7264;BME280;3673;52.480;13.348;2023-07-20T12:41:17;100818.28;;;24.39;38.91
7264;BME280;3673;52.480;13.348;2023-07-20T12:43:45;100807.41;;;24.57;39.36
7264;BME280;3673;52.480;13.348;2023-07-20T12:46:12;100806.91;;;25.40;37.32
7264;BME280;3673;52.480;13.348;2023-07-20T12:48:41;100807.91;;;27.42;34.01
7264;BME280;3673;52.480;13.348;2023-07-20T12:51:09;100806.56;;;28.60;31.61
7264;BME280;3673;52.480;13.348;2023-07-20T12:53:37;100810.09;;;29.32;30.23
7264;BME280;3673;52.480;13.348;2023-07-20T12:56:05;100815.88;;;29.60;29.47
7264;BME280;3673;52.480;13.348;2023-07-20T12:58:32;100807.28;;;30.55;28.09
7264;BME280;3673;52.480;13.348;2023-07-20T13:00:58;100798.78;;;30.60;25.75
7264;BME280;3673;52.480;13.348;2023-07-20T13:03:25;100799.34;;;30.21;26.71
7264;BME280;3673;52.480;13.348;2023-07-20T13:05:53;100790.78;;;29.93;26.84
7264;BME280;3673;52.480;13.348;2023-07-20T13:08:20;100794.19;;;30.29;25.71